LRBS/BBU METAR and TAF weather

Enter ICAO airport designator
Station Type Date Time Source
LRBS METAR 2021/05/14 22:00 UTC NOAA

LRBS 142200Z 00000KT CAVOK 14/11 Q1011 NOSIG


Station Type Date Time Source
LRBS Decoded METAR 2021/05/14 22:00 UTC NOAA

Bucuresti / Imh, Romania (LRBS) 44-30N 026-08E 91M
May 14, 2021 - 06:00 PM EDT / 2021.05.14 2200 UTC
Wind: Calm:0
Visibility: greater than 7 mile(s):0
Temperature: 57 F (14 C)
Dew Point: 51 F (11 C)
Relative Humidity: 82%
Pressure (altimeter): 29.85 in. Hg (1011 hPa)
ob: LRBS 142200Z 00000KT CAVOK 14/11 Q1011 NOSIG
cycle: 22

Station Type Date Time Source
LRBS TAF 2021/05/14 18:33 UTC NOAA

TAF TAF LRBS 141700Z 1418/1518 25008KT CAVOK
TEMPO 1501/1505 3000 BR PROB30
TEMPO 1515/1518 5000 TSRA SCT040CB

Example: see airport list